Сокол

Карта отелей и гостиниц, располагающихся рядом с аэропортом Сокол :

Сокол
Магадан
Магаданская область 59° 54' 39.5388" N, 150° 43' 13.6812" E
Код аэродрома ИКАО
UHMM
Код аэродрома RU
УХММ
Координаты
N59.91098° E150.72047°
Превышение над уровнем моря
175
Основная полоса
10/28
Курс магнитный
103,8/283,8
Длина основной ВПП
3460
Ширина основной ВПП
60
Покрытие основной ВПП
Твёрдое (бетон)
Освещение ВПП
Постоянное
Тип: 
Аэродром
Класс аэродрома: 
Международный
Принадлежность: 
ГА
Статус: 
Действующий
Сайт: 
http://airport-magadan.ru/
E-mail аэродрома: 
airport-magadan@mail.ru
Страна: 
Россия
Регион: 
Магаданская область
Город: 
Магадан
Дополнительная информация: 
Оператор: ОАО «Аэропорт Магадан». Управление: Северо-Восточное МТУ ВТ ФАВТ (Росавиации). Военный индекс: ЬХММ/XHMM.
Схемы аэропортов: 
Погода: 

Авиационная погода в аэропорту Сокол

Регион: 
Погода METAR: 
UHMM 241700Z 10001MPS 9999 SCT036 M09/M13 Q1006 RMK QFE740 R28/09002MPS
Время наблюдения
2021-10-24T17:00:00Z
Температура C
-9.0
Точка росы
-13.0
Направление ветра
100
Скорость ветра (узлы)
2
Метео видимость
6.21
Явления погоды
Условия полета
VFR
Аэропорт подробнее: 

Найти трансфер

С помощью этой формы Вы можете найти трансфер из аэропорта Сокол в город, аэропорт или вокзал:

Карта места

Javascript is required to view this map.

Погода в аэропортах:

Авиационная погода в Вардё

Регион: 
Погода METAR: 
ENSS 241650Z 34006KT 9999 VCSH SCT030 M01/M06 Q1013 RMK WIND 500FT 36014KT
Время наблюдения
2021-10-24T16:50:00Z
Температура C
-1.0
Точка росы
-6.0
Направление ветра
340
Скорость ветра (узлы)
6
Метео видимость
6.21
Явления погоды
VCSH
Условия полета
VFR

Авиационная погода в Якутске

Регион: 
Погода METAR: 
UEEE 241700Z 22002MPS 9999 -SHSN SCT040CB 00/M01 Q1003 R23L/150156 NOSIG RMK QFE743
Время наблюдения
2021-10-24T17:00:00Z
Температура C
0.0
Точка росы
-1.0
Направление ветра
220
Скорость ветра (узлы)
4
Метео видимость
6.21
Явления погоды
-SHSN
Условия полета
VFR
Аэропорт подробнее: 

Авиационная погода в Алматы

Регион: 
Погода METAR: 
UAAA 241800Z 15001MPS 1400 R23L/P2000D BR FU NSC 02/M00 Q1020 R23L/CLRD65 NOSIG
Время наблюдения
2021-10-24T18:00:00Z
Температура C
2.0
Точка росы
0.0
Направление ветра
150
Скорость ветра (узлы)
2
Метео видимость
0.87
Явления погоды
FU BR
Условия полета
LIFR
Аэропорт подробнее: 

Авиационная погода в Мирном

Регион: 
Погода METAR: 
UERR 241700Z 21003MPS 9999 -SHSN FEW009 OVC020CB M00/M01 Q0997 R25/591032 NOSIG RMK QFE717/0956
Время наблюдения
2021-10-24T17:00:00Z
Температура C
0.0
Точка росы
-1.0
Направление ветра
210
Скорость ветра (узлы)
6
Метео видимость
6.21
Явления погоды
-SHSN
Условия полета
MVFR
Аэропорт подробнее: